Time;durP1;ratioP1;P1;durP2;ratioP2;P2;SDS_P1;SDS_P2;PMS_P1;PMS_P2;Temp;Humidity;BMP_temperature;BMP_pressure;BME280_temperature;BME280_humidity;BME280_pressure;Samples;Min_cycle;Max_cycle;Signal;HPM_P1;HPM_P2
2021/09/06 00:00:04;;;;;;;;;;;;;;;17.75;nan;99725.78;5075762;28;19924;-79
2021/09/06 00:02:38;;;;;;;;;;;;;;;17.78;nan;99726.94;5076505;28;20560;-78
2021/09/06 00:05:06;;;;;;;;;;;;;;;17.86;nan;99731.06;5093601;28;19969;-79
2021/09/06 00:07:34;;;;;;;;;;;;;;;17.69;nan;99724.78;5093291;28;20447;-78
2021/09/06 00:10:17;;;;;;;;;;;;;;;17.62;nan;99722.22;5093491;28;19924;-78
2021/09/06 00:12:45;;;;;;;;;;;;;;;17.68;nan;99728.88;5056952;28;19974;-79
2021/09/06 00:15:12;;;;;;;;;;;;;;;17.61;nan;99728.31;5093514;28;19924;-79
2021/09/06 00:17:40;;;;;;;;;;;;;;;17.62;nan;99727.06;5093164;28;19957;-79
2021/09/06 00:20:07;;;;;;;;;;;;;;;17.61;nan;99728.31;5075583;28;19997;-79
2021/09/06 00:22:34;;;;;;;;;;;;;;;17.37;nan;99727.09;5075418;28;19977;-79
2021/09/06 00:25:01;;;;;;;;;;;;;;;17.27;nan;99740.31;5093460;28;19969;-78
2021/09/06 00:27:28;;;;;;;;;;;;;;;17.02;nan;99736.69;5093486;28;19946;-78
2021/09/06 00:30:08;;;;;;;;;;;;;;;17.08;nan;99735.69;5107403;28;19928;-79
2021/09/06 00:32:35;;;;;;;;;;;;;;;17.37;nan;99730.69;5075335;28;19931;-79
2021/09/06 00:35:02;;;;;;;;;;;;;;;17.50;nan;99733.53;5075428;28;20332;-79
2021/09/06 00:37:29;;;;;;;;;;;;;;;17.57;nan;99730.44;5075121;28;19924;-78
2021/09/06 00:39:57;;;;;;;;;;;;;;;17.55;nan;99718.84;5075593;28;19923;-79
2021/09/06 00:42:24;;;;;;;;;;;;;;;17.59;nan;99716.66;5075232;28;20268;-79
2021/09/06 00:44:52;;;;;;;;;;;;;;;17.65;nan;99717.66;5075183;28;20367;-78
2021/09/06 00:47:19;;;;;;;;;;;;;;;17.65;nan;99720.50;5075370;28;19924;-79
2021/09/06 00:49:47;;;;;;;;;;;;;;;16.73;nan;99727.50;5075280;28;19928;-78
2021/09/06 00:52:14;;;;;;;;;;;;;;;17.03;nan;99724.13;5074987;28;19928;-79
2021/09/06 00:54:41;;;;;;;;;;;;;;;17.12;nan;99732.72;5091948;28;19928;-78
2021/09/06 00:57:09;;;;;;;;;;;;;;;16.85;nan;99723.91;5075262;28;20272;-79
2021/09/06 00:59:38;;;;;;;;;;;;;;;16.88;nan;99717.34;5075210;28;19928;-79
2021/09/06 01:02:05;;;;;;;;;;;;;;;17.24;nan;99726.28;5058562;28;20393;-79
2021/09/06 01:04:33;;;;;;;;;;;;;;;17.43;nan;99713.97;5108650;28;19924;-78
2021/09/06 01:07:34;;;;;;;;;;;;;;;17.43;nan;99716.78;5010844;28;20377;-79
2021/09/06 01:10:24;;;;;;;;;;;;;;;17.53;nan;99712.84;4996730;28;20328;-78
2021/09/06 01:13:04;;;;;;;;;;;;;;;17.14;nan;99714.09;4994687;28;19935;-78
2021/09/06 01:15:33;;;;;;;;;;;;;;;17.51;nan;99715.31;5010601;28;20361;-79
2021/09/06 01:18:02;;;;;;;;;;;;;;;17.63;nan;99714.53;4994753;28;19979;-79
2021/09/06 01:20:31;;;;;;;;;;;;;;;17.25;nan;99713.75;4994856;28;19964;-79
2021/09/06 01:22:59;;;;;;;;;;;;;;;17.58;nan;99726.41;4994373;28;19929;-79
2021/09/06 01:25:51;;;;;;;;;;;;;;;17.50;nan;99725.03;4907222;29;19927;-79
2021/09/06 01:28:19;;;;;;;;;;;;;;;17.72;nan;99720.28;4917934;29;19927;-79
2021/09/06 01:30:47;;;;;;;;;;;;;;;17.83;nan;99721.47;4901868;29;19931;-79
2021/09/06 01:33:15;;;;;;;;;;;;;;;17.77;nan;99716.84;4917870;29;19928;-79
2021/09/06 01:35:44;;;;;;;;;;;;;;;17.80;nan;99710.28;4935502;29;19933;-78
2021/09/06 01:38:11;;;;;;;;;;;;;;;17.94;nan;99710.59;4901937;29;20323;-79
2021/09/06 01:40:40;;;;;;;;;;;;;;;17.98;nan;99716.09;4889919;29;20395;-79
2021/09/06 01:43:11;;;;;;;;;;;;;;;17.79;nan;99709.50;4948592;28;19973;-79
2021/09/06 01:45:39;;;;;;;;;;;;;;;17.55;nan;99699.81;4962187;28;19926;-79
2021/09/06 01:48:06;;;;;;;;;;;;;;;17.65;nan;99706.38;4978262;28;19933;-79
2021/09/06 01:50:41;;;;;;;;;;;;;;;17.82;nan;99705.78;4961621;28;20353;-79
2021/09/06 01:53:09;;;;;;;;;;;;;;;17.95;nan;99705.72;4978042;28;20324;-79
2021/09/06 01:55:36;;;;;;;;;;;;;;;18.02;nan;99694.16;4975189;28;19933;-78
2021/09/06 01:58:10;;;;;;;;;;;;;;;17.85;nan;99695.56;4979107;28;19926;-79
2021/09/06 02:00:37;;;;;;;;;;;;;;;17.51;nan;99698.38;4993884;28;20601;-79
2021/09/06 02:03:05;;;;;;;;;;;;;;;17.80;nan;99704.63;5004786;28;19924;-79
2021/09/06 02:05:46;;;;;;;;;;;;;;;18.00;nan;99696.66;5077834;28;19924;-79
2021/09/06 02:08:20;;;;;;;;;;;;;;;18.10;nan;99695.47;5078045;28;19931;-79
2021/09/06 02:10:48;;;;;;;;;;;;;;;18.09;nan;99685.41;5094520;28;19928;-79
2021/09/06 02:13:15;;;;;;;;;;;;;;;18.16;nan;99692.84;5077594;28;19973;-79
2021/09/06 02:15:44;;;;;;;;;;;;;;;18.17;nan;99689.56;5078003;28;19935;-78
2021/09/06 02:18:12;;;;;;;;;;;;;;;18.22;nan;99685.34;5057197;28;19925;-78
2021/09/06 02:20:40;;;;;;;;;;;;;;;17.81;nan;99683.63;5035812;28;19928;-78
2021/09/06 02:23:13;;;;;;;;;;;;;;;17.43;nan;99697.81;5077480;28;20291;-78
2021/09/06 02:25:41;;;;;;;;;;;;;;;17.40;nan;99703.56;5061107;28;19928;-78
2021/09/06 02:28:08;;;;;;;;;;;;;;;17.42;nan;99701.06;5077323;28;19930;-78
2021/09/06 02:30:35;;;;;;;;;;;;;;;17.75;nan;99697.50;5094023;28;20306;-79
2021/09/06 02:33:03;;;;;;;;;;;;;;;17.93;nan;99691.25;5091754;28;19932;-78
2021/09/06 02:35:49;;;;;;;;;;;;;;;18.07;nan;99701.25;5092383;28;19931;-79
2021/09/06 02:38:16;;;;;;;;;;;;;;;18.11;nan;99701.91;5077107;28;19928;-78
2021/09/06 02:40:43;;;;;;;;;;;;;;;17.65;nan;99698.69;5057058;28;19925;-79
2021/09/06 02:43:12;;;;;;;;;;;;;;;17.64;nan;99696.31;5074101;28;20441;-78
2021/09/06 02:45:40;;;;;;;;;;;;;;;17.89;nan;99690.56;5077305;28;19924;-79
2021/09/06 02:48:08;;;;;;;;;;;;;;;18.08;nan;99686.66;5076789;28;19924;-78
2021/09/06 02:50:37;;;;;;;;;;;;;;;18.11;nan;99679.28;5094228;28;19924;-79
2021/09/06 02:53:07;;;;;;;;;;;;;;;18.16;nan;99678.72;5093267;28;19930;-79
2021/09/06 02:55:34;;;;;;;;;;;;;;;18.10;nan;99683.38;5093526;28;19928;-78
2021/09/06 02:58:01;;;;;;;;;;;;;;;17.85;nan;99678.63;5043795;28;19949;-78
2021/09/06 03:00:29;;;;;;;;;;;;;;;17.70;nan;99683.19;5110270;28;19928;-79
2021/09/06 03:02:59;;;;;;;;;;;;;;;17.83;nan;99690.38;5076716;28;19924;-78
2021/09/06 03:05:27;;;;;;;;;;;;;;;17.98;nan;99691.44;5110382;28;19937;-78
2021/09/06 03:07:56;;;;;;;;;;;;;;;18.09;nan;99688.25;5076426;28;19924;-78
2021/09/06 03:10:25;;;;;;;;;;;;;;;18.15;nan;99679.94;5092921;28;20395;-79
2021/09/06 03:12:53;;;;;;;;;;;;;;;18.18;nan;99681.84;5076532;28;19924;-78
2021/09/06 03:15:21;;;;;;;;;;;;;;;18.27;nan;99685.53;5051488;28;19969;-79
2021/09/06 03:17:52;;;;;;;;;;;;;;;18.23;nan;99682.06;5076539;28;19928;-79
2021/09/06 03:20:35;;;;;;;;;;;;;;;17.96;nan;99679.03;5058111;28;20529;-79
2021/09/06 03:23:03;;;;;;;;;;;;;;;17.80;nan;99676.34;5076486;28;19939;-79
2021/09/06 03:25:30;;;;;;;;;;;;;;;17.74;nan;99679.00;5076136;28;19924;-79
2021/09/06 03:27:58;;;;;;;;;;;;;;;17.77;nan;99685.75;5076322;28;19949;-79
2021/09/06 03:30:25;;;;;;;;;;;;;;;17.55;nan;99682.88;5056005;28;19924;-79
2021/09/06 03:32:52;;;;;;;;;;;;;;;17.84;nan;99686.28;5058512;28;19931;-79
2021/09/06 03:35:20;;;;;;;;;;;;;;;18.04;nan;99679.56;5076248;28;19924;-79
2021/09/06 03:37:48;;;;;;;;;;;;;;;18.10;nan;99681.31;5071976;28;19924;-79
2021/09/06 03:40:21;;;;;;;;;;;;;;;18.24;nan;99685.66;5066610;28;19985;-78
2021/09/06 03:42:48;;;;;;;;;;;;;;;18.31;nan;99677.69;5057284;28;20275;-78
2021/09/06 03:45:15;;;;;;;;;;;;;;;18.28;nan;99687.09;5055687;28;19924;-78
2021/09/06 03:47:49;;;;;;;;;;;;;;;18.24;nan;99683.63;5070277;28;20387;-79
2021/09/06 03:50:16;;;;;;;;;;;;;;;18.29;nan;99685.09;5075652;28;19928;-78
2021/09/06 03:52:44;;;;;;;;;;;;;;;18.32;nan;99678.50;5075834;28;19998;-79
2021/09/06 03:55:11;;;;;;;;;;;;;;;18.29;nan;99683.06;5055391;28;19925;-79
2021/09/06 03:57:39;;;;;;;;;;;;;;;18.26;nan;99675.50;5067994;28;19935;-79
2021/09/06 04:00:07;;;;;;;;;;;;;;;18.03;nan;99681.59;5075407;28;19924;-79
2021/09/06 04:02:44;;;;;;;;;;;;;;;18.16;nan;99682.31;5077300;28;20359;-79
2021/09/06 04:05:16;;;;;;;;;;;;;;;18.16;nan;99687.19;5075523;28;20025;-79
2021/09/06 04:07:43;;;;;;;;;;;;;;;18.13;nan;99680.41;5059303;28;19924;-79
2021/09/06 04:10:11;;;;;;;;;;;;;;;17.85;nan;99667.31;5075578;28;19924;-79
2021/09/06 04:12:39;;;;;;;;;;;;;;;17.91;nan;99671.13;5092375;28;19930;-79
2021/09/06 04:15:09;;;;;;;;;;;;;;;18.03;nan;99670.28;5075281;28;19981;-78
2021/09/06 04:17:37;;;;;;;;;;;;;;;18.08;nan;99666.88;5075781;28;19930;-79
2021/09/06 04:20:05;;;;;;;;;;;;;;;17.83;nan;99664.13;5075696;28;19935;-79
2021/09/06 04:22:35;;;;;;;;;;;;;;;17.91;nan;99671.13;5092456;28;19977;-79
2021/09/06 04:25:02;;;;;;;;;;;;;;;17.84;nan;99668.56;5055459;28;20283;-79
2021/09/06 04:27:30;;;;;;;;;;;;;;;17.91;nan;99666.28;5041953;28;19946;-79
2021/09/06 04:29:57;;;;;;;;;;;;;;;17.95;nan;99671.78;5063744;28;19931;-79
2021/09/06 04:32:26;;;;;;;;;;;;;;;17.99;nan;99661.16;5090643;28;19928;-79
2021/09/06 04:34:53;;;;;;;;;;;;;;;18.02;nan;99663.06;5075439;28;19930;-79
2021/09/06 04:37:20;;;;;;;;;;;;;;;18.09;nan;99679.75;5091894;28;19924;-79
2021/09/06 04:39:49;;;;;;;;;;;;;;;18.10;nan;99672.84;5038999;28;19934;-79
2021/09/06 04:42:16;;;;;;;;;;;;;;;18.07;nan;99679.41;5104196;28;19928;-79
2021/09/06 04:44:43;;;;;;;;;;;;;;;18.02;nan;99672.31;5075275;28;19924;-79
2021/09/06 04:47:11;;;;;;;;;;;;;;;18.13;nan;99673.97;5075410;28;19931;-79
2021/09/06 04:49:38;;;;;;;;;;;;;;;17.94;nan;99675.88;5058640;28;20248;-79
2021/09/06 04:52:09;;;;;;;;;;;;;;;17.57;nan;99683.22;5108905;28;19924;-79
2021/09/06 04:54:36;;;;;;;;;;;;;;;17.23;nan;99685.19;5075086;28;19927;-79
2021/09/06 04:57:04;;;;;;;;;;;;;;;17.19;nan;99690.16;5038773;28;20364;-79
2021/09/06 04:59:31;;;;;;;;;;;;;;;17.37;nan;99687.53;5102206;28;19925;-79
2021/09/06 05:01:59;;;;;;;;;;;;;;;17.57;nan;99686.03;5058883;28;19925;-79
2021/09/06 05:04:27;;;;;;;;;;;;;;;17.76;nan;99681.34;5070816;28;19959;-79
2021/09/06 05:06:54;;;;;;;;;;;;;;;17.84;nan;99689.13;5058519;28;19932;-79
2021/09/06 05:09:22;;;;;;;;;;;;;;;17.90;nan;99686.53;5069254;28;19924;-79
2021/09/06 05:11:51;;;;;;;;;;;;;;;17.83;nan;99692.41;5078555;28;19932;-79
2021/09/06 05:14:19;;;;;;;;;;;;;;;17.84;nan;99686.28;5095778;28;19935;-79
2021/09/06 05:16:46;;;;;;;;;;;;;;;17.72;nan;99687.13;5078722;28;19934;-78
2021/09/06 05:19:14;;;;;;;;;;;;;;;17.69;nan;99692.94;5058478;28;19931;-78
2021/09/06 05:21:41;;;;;;;;;;;;;;;17.66;nan;99693.84;5052396;28;19925;-79
2021/09/06 05:24:09;;;;;;;;;;;;;;;17.66;nan;99700.25;5047999;28;19924;-78
2021/09/06 05:26:36;;;;;;;;;;;;;;;17.53;nan;99695.88;5058469;28;20272;-79
2021/09/06 05:29:03;;;;;;;;;;;;;;;17.07;nan;99702.25;5060318;28;20035;-79
2021/09/06 05:31:30;;;;;;;;;;;;;;;16.87;nan;99710.16;5061873;28;20333;-79
2021/09/06 05:33:59;;;;;;;;;;;;;;;17.07;nan;99708.66;5078315;28;19966;-79
2021/09/06 05:36:26;;;;;;;;;;;;;;;17.31;nan;99706.31;5078310;28;19972;-79
2021/09/06 05:38:56;;;;;;;;;;;;;;;17.49;nan;99700.88;5059723;28;19929;-79
2021/09/06 05:41:44;;;;;;;;;;;;;;;17.46;nan;99701.78;5091855;28;20395;-79
2021/09/06 05:44:12;;;;;;;;;;;;;;;17.42;nan;99716.00;5057986;28;19977;-79
2021/09/06 05:46:41;;;;;;;;;;;;;;;17.46;nan;99713.09;5077851;28;19924;-79
2021/09/06 05:49:10;;;;;;;;;;;;;;;17.38;nan;99706.84;5061864;28;19924;-78
2021/09/06 05:51:40;;;;;;;;;;;;;;;17.45;nan;99700.19;5077819;28;20379;-79
2021/09/06 05:54:18;;;;;;;;;;;;;;;17.51;nan;99704.00;5078134;28;19953;-78
2021/09/06 05:56:46;;;;;;;;;;;;;;;17.57;nan;99705.81;5077600;28;19931;-79
2021/09/06 05:59:18;;;;;;;;;;;;;;;17.60;nan;99704.91;5077911;28;19924;-79
2021/09/06 06:01:46;;;;;;;;;;;;;;;17.63;nan;99715.31;5077634;28;19935;-79
2021/09/06 06:04:14;;;;;;;;;;;;;;;17.51;nan;99704.00;5077848;28;19924;-79
2021/09/06 06:06:46;;;;;;;;;;;;;;;17.24;nan;99717.81;5077747;28;20348;-79
2021/09/06 06:09:14;;;;;;;;;;;;;;;17.53;nan;99713.63;5077689;28;19973;-79
2021/09/06 06:11:41;;;;;;;;;;;;;;;17.62;nan;99718.59;5060305;28;20298;-79
2021/09/06 06:14:17;;;;;;;;;;;;;;;17.63;nan;99718.13;5057515;28;19925;-77
2021/09/06 06:20:43;;;;;;;;;;;;;;;17.58;nan;99720.75;5079411;28;19924;-79
2021/09/06 06:23:22;;;;;;;;;;;;;;;17.69;nan;99721.19;5051081;28;19950;-79
2021/09/06 06:26:08;;;;;;;;;;;;;;;17.75;nan;99725.00;5089110;28;19925;-80
2021/09/06 06:28:35;;;;;;;;;;;;;;;17.78;nan;99718.44;5058236;28;20363;-80
2021/09/06 06:31:02;;;;;;;;;;;;;;;17.76;nan;99726.59;5057540;28;20393;-80
2021/09/06 06:33:30;;;;;;;;;;;;;;;17.85;nan;99723.84;5059090;28;20394;-81
2021/09/06 06:36:03;;;;;;;;;;;;;;;17.96;nan;99735.56;5060538;28;20401;-79
2021/09/06 06:38:32;;;;;;;;;;;;;;;18.03;nan;99743.78;5056717;28;19928;-79
2021/09/06 06:40:59;;;;;;;;;;;;;;;17.76;nan;99737.88;5069598;28;19993;-79
2021/09/06 06:43:37;;;;;;;;;;;;;;;17.73;nan;99745.25;5075895;28;19934;-79
2021/09/06 06:46:07;;;;;;;;;;;;;;;18.02;nan;99750.72;5077243;28;19924;-79
2021/09/06 06:48:34;;;;;;;;;;;;;;;18.24;nan;99745.88;5093585;28;20305;-78
2021/09/06 06:51:16;;;;;;;;;;;;;;;18.39;nan;99746.97;5077130;28;19976;-79
2021/09/06 06:53:45;;;;;;;;;;;;;;;18.52;nan;99742.03;5064953;28;19935;-78
2021/09/06 06:56:14;;;;;;;;;;;;;;;18.66;nan;99747.16;5056491;28;19946;-79
2021/09/06 06:58:41;;;;;;;;;;;;;;;19.00;nan;99741.38;5057012;28;19946;-79
2021/09/06 07:01:12;;;;;;;;;;;;;;;19.29;nan;99752.41;5101634;28;19924;-80
2021/09/06 07:03:42;;;;;;;;;;;;;;;19.30;nan;99748.28;5083698;28;19924;-78
2021/09/06 07:06:10;;;;;;;;;;;;;;;19.21;nan;99746.19;5026846;28;19928;-79
2021/09/06 07:08:41;;;;;;;;;;;;;;;19.73;nan;99748.91;5064734;28;20455;-79
2021/09/06 07:11:08;;;;;;;;;;;;;;;19.84;nan;99742.81;5071225;28;19973;-80
2021/09/06 07:13:36;;;;;;;;;;;;;;;19.80;nan;99735.69;5076668;28;19928;-79
2021/09/06 07:16:05;;;;;;;;;;;;;;;19.77;nan;99747.97;5047430;28;19924;-79
2021/09/06 07:18:32;;;;;;;;;;;;;;;19.72;nan;99757.09;5065262;28;19925;-79
2021/09/06 07:21:00;;;;;;;;;;;;;;;19.82;nan;99756.66;5070637;28;20402;-79
2021/09/06 07:23:29;;;;;;;;;;;;;;;19.88;nan;99759.66;5066651;28;19934;-79
2021/09/06 07:25:56;;;;;;;;;;;;;;;19.50;nan;99760.81;5058851;28;19927;-79
2021/09/06 07:28:24;;;;;;;;;;;;;;;19.45;nan;99769.94;5087626;28;19954;-79
2021/09/06 07:30:53;;;;;;;;;;;;;;;19.94;nan;99774.78;5068765;28;19939;-79
2021/09/06 07:33:21;;;;;;;;;;;;;;;20.33;nan;99776.75;5076070;28;19935;-79
2021/09/06 07:35:48;;;;;;;;;;;;;;;20.53;nan;99775.03;5085084;28;19925;-80
2021/09/06 07:38:18;;;;;;;;;;;;;;;20.90;nan;99775.75;5102005;28;19940;-82
2021/09/06 07:40:46;;;;;;;;;;;;;;;20.98;nan;99769.28;5068712;28;20376;-81
2021/09/06 07:43:14;;;;;;;;;;;;;;;21.05;nan;99771.78;5056218;28;19931;-79
2021/09/06 07:45:44;;;;;;;;;;;;;;;21.15;nan;99778.25;5101350;28;19924;-77
2021/09/06 07:48:12;;;;;;;;;;;;;;;21.21;nan;99779.16;5073794;28;19932;-76
2021/09/06 07:50:45;;;;;;;;;;;;;;;20.73;nan;99781.00;5094748;28;20287;-77
2021/09/06 07:53:13;;;;;;;;;;;;;;;19.78;nan;99777.91;5064279;28;19973;-78
2021/09/06 07:55:40;;;;;;;;;;;;;;;19.72;nan;99788.28;5062602;28;19931;-78
2021/09/06 07:58:08;;;;;;;;;;;;;;;20.33;nan;99791.72;5062553;28;19949;-78
2021/09/06 08:00:36;;;;;;;;;;;;;;;20.60;nan;99793.78;5066512;28;19981;-78
2021/09/06 08:03:05;;;;;;;;;;;;;;;20.80;nan;99791.22;5066689;28;19926;-78
2021/09/06 08:05:35;;;;;;;;;;;;;;;21.24;nan;99786.72;5065429;28;19928;-78
2021/09/06 08:08:09;;;;;;;;;;;;;;;21.64;nan;99787.22;5061177;28;19925;-78
2021/09/06 08:10:38;;;;;;;;;;;;;;;22.11;nan;99786.50;5057468;28;20302;-78
2021/09/06 08:13:05;;;;;;;;;;;;;;;22.57;nan;99777.13;5044344;28;19977;-79
2021/09/06 08:15:35;;;;;;;;;;;;;;;23.01;nan;99758.00;5065913;28;19924;-79
2021/09/06 08:18:06;;;;;;;;;;;;;;;23.78;nan;99761.34;5094331;28;19924;-78
2021/09/06 08:20:42;;;;;;;;;;;;;;;24.60;nan;99766.56;5050549;28;19934;-79
2021/09/06 08:23:10;;;;;;;;;;;;;;;25.37;nan;99750.22;5060929;28;19924;-78
2021/09/06 08:25:37;;;;;;;;;;;;;;;26.17;nan;99749.72;5064772;28;19934;-78
2021/09/06 08:28:06;;;;;;;;;;;;;;;26.96;nan;99745.81;5066545;28;20359;-79
2021/09/06 08:30:34;;;;;;;;;;;;;;;26.70;nan;99733.78;5066403;28;20298;-79
2021/09/06 08:33:03;;;;;;;;;;;;;;;27.32;nan;99727.59;5066513;28;19934;-80
2021/09/06 08:35:31;;;;;;;;;;;;;;;27.74;nan;99733.03;5069743;28;19933;-79
2021/09/06 08:37:59;;;;;;;;;;;;;;;28.02;nan;99725.16;5069687;28;19931;-79
2021/09/06 08:40:26;;;;;;;;;;;;;;;28.37;nan;99727.38;5070524;28;19931;-79
2021/09/06 08:42:54;;;;;;;;;;;;;;;28.51;nan;99729.91;5061680;28;19924;-79
2021/09/06 08:45:24;;;;;;;;;;;;;;;28.54;nan;99733.81;5053779;28;19928;-79
2021/09/06 08:47:53;;;;;;;;;;;;;;;28.28;nan;99728.44;5074882;28;19924;-79
2021/09/06 08:50:21;;;;;;;;;;;;;;;27.89;nan;99737.19;5079105;28;19924;-79
2021/09/06 08:52:49;;;;;;;;;;;;;;;26.94;nan;99743.47;5062348;28;19924;-79
2021/09/06 08:55:17;;;;;;;;;;;;;;;26.71;nan;99738.19;5059255;28;19925;-79
2021/09/06 08:57:48;;;;;;;;;;;;;;;26.55;nan;99745.44;5059754;28;19954;-79
2021/09/06 09:00:23;;;;;;;;;;;;;;;26.36;nan;99748.00;5062287;28;20375;-78
2021/09/06 09:03:11;;;;;;;;;;;;;;;26.34;nan;99741.19;5078471;28;19972;-78
2021/09/06 09:06:06;;;;;;;;;;;;;;;26.21;nan;99750.28;5069919;28;20283;-78
2021/09/06 09:09:02;;;;;;;;;;;;;;;26.18;nan;99753.38;5061792;28;19973;-79
2021/09/06 09:11:37;;;;;;;;;;;;;;;26.09;nan;99754.38;5056923;28;19928;-78
2021/09/06 09:14:24;;;;;;;;;;;;;;;25.99;nan;99749.38;5104326;28;19925;-82
2021/09/06 09:17:11;;;;;;;;;;;;;;;25.61;nan;99759.25;5066738;28;19924;-79
2021/09/06 09:20:02;;;;;;;;;;;;;;;25.98;nan;99759.22;5063792;28;19931;-80
2021/09/06 09:23:03;;;;;;;;;;;;;;;25.51;nan;99752.16;5047473;28;19925;-79
2021/09/06 09:25:42;;;;;;;;;;;;;;;25.67;nan;99757.22;5063277;28;19930;-78
2021/09/06 09:28:36;;;;;;;;;;;;;;;25.69;nan;99765.31;5048068;28;20482;-79
2021/09/06 09:31:22;;;;;;;;;;;;;;;25.70;nan;99773.38;5078694;28;19939;-78
2021/09/06 09:34:00;;;;;;;;;;;;;;;25.76;nan;99774.22;5089673;28;19924;-79
2021/09/06 09:36:38;;;;;;;;;;;;;;;26.06;nan;99757.47;5070383;28;19924;-78
2021/09/06 09:39:08;;;;;;;;;;;;;;;26.21;nan;99761.72;5059950;28;19932;-79
2021/09/06 09:41:36;;;;;;;;;;;;;;;26.27;nan;99761.75;5095394;28;19976;-81
2021/09/06 09:44:11;;;;;;;;;;;;;;;26.45;nan;99764.94;5087994;28;19950;-79
2021/09/06 09:46:52;;;;;;;;;;;;;;;26.54;nan;99760.31;5052816;28;19931;-79
2021/09/06 09:49:20;;;;;;;;;;;;;;;26.86;nan;99753.09;5079962;28;19924;-79
2021/09/06 09:51:48;;;;;;;;;;;;;;;26.58;nan;99749.34;5084533;28;19928;-79
2021/09/06 09:54:16;;;;;;;;;;;;;;;25.75;nan;99758.31;5080177;28;19925;-79
2021/09/06 09:56:44;;;;;;;;;;;;;;;25.54;nan;99759.72;5066440;28;19928;-79
2021/09/06 09:59:13;;;;;;;;;;;;;;;25.84;nan;99768.78;5071808;28;19924;-79
2021/09/06 10:01:59;;;;;;;;;;;;;;;26.31;nan;99757.34;5082533;28;19924;-79
2021/09/06 10:04:30;;;;;;;;;;;;;;;26.04;nan;99771.50;5078610;28;19931;-79
2021/09/06 10:06:59;;;;;;;;;;;;;;;25.48;nan;99769.56;5084658;28;19928;-79
2021/09/06 10:09:28;;;;;;;;;;;;;;;25.43;nan;99770.31;5077614;28;19928;-79
2021/09/06 10:12:04;;;;;;;;;;;;;;;26.06;nan;99772.59;5085685;28;19924;-79
2021/09/06 10:14:32;;;;;;;;;;;;;;;26.04;nan;99774.38;5070850;28;20424;-79
2021/09/06 10:17:01;;;;;;;;;;;;;;;26.11;nan;99768.94;5063700;28;19924;-79
2021/09/06 10:20:01;;;;;;;;;;;;;;;26.18;nan;99767.69;5090361;28;20367;-79
2021/09/06 10:22:29;;;;;;;;;;;;;;;26.41;nan;99767.28;5009303;28;20335;-79
2021/09/06 10:24:58;;;;;;;;;;;;;;;26.43;nan;99767.53;5013060;28;19945;-79
2021/09/06 10:27:35;;;;;;;;;;;;;;;26.26;nan;99752.34;5013188;28;20367;-79
2021/09/06 10:30:10;;;;;;;;;;;;;;;25.36;nan;99762.97;5013334;28;19925;-79
2021/09/06 10:32:42;;;;;;;;;;;;;;;25.55;nan;99767.00;5008346;28;19925;-79
2021/09/06 10:35:12;;;;;;;;;;;;;;;25.62;nan;99772.28;5013102;28;19926;-79
2021/09/06 10:37:42;;;;;;;;;;;;;;;25.87;nan;99765.66;5013599;28;19933;-86
2021/09/06 10:40:28;;;;;;;;;;;;;;;25.20;nan;99765.66;5013431;28;19930;-80
2021/09/06 10:42:56;;;;;;;;;;;;;;;25.20;nan;99777.91;4977915;28;19925;-79
2021/09/06 10:45:27;;;;;;;;;;;;;;;25.50;nan;99766.97;5007609;28;19932;-78
2021/09/06 10:47:57;;;;;;;;;;;;;;;25.14;nan;99770.53;5012406;28;20323;-79
2021/09/06 10:50:24;;;;;;;;;;;;;;;25.47;nan;99768.78;5012705;28;19925;-79
2021/09/06 10:52:53;;;;;;;;;;;;;;;25.97;nan;99769.91;5012815;28;19936;-79
2021/09/06 10:55:23;;;;;;;;;;;;;;;26.52;nan;99770.16;5012691;28;20415;-79
2021/09/06 10:57:50;;;;;;;;;;;;;;;26.54;nan;99766.03;5019012;28;19924;-79
2021/09/06 11:00:21;;;;;;;;;;;;;;;26.59;nan;99768.09;5043453;28;19935;-79
2021/09/06 11:02:49;;;;;;;;;;;;;;;26.58;nan;99770.22;5050926;28;19935;-79
2021/09/06 11:05:24;;;;;;;;;;;;;;;26.84;nan;99767.19;5053287;28;19924;-85
2021/09/06 11:08:02;;;;;;;;;;;;;;;26.44;nan;99774.84;5053277;28;20454;-85
2021/09/06 11:10:31;;;;;;;;;;;;;;;26.30;nan;99770.09;5036300;28;19929;-85
2021/09/06 11:12:59;;;;;;;;;;;;;;;26.51;nan;99769.94;5054036;28;19936;-81
2021/09/06 11:15:32;;;;;;;;;;;;;;;26.09;nan;99771.56;5036345;28;19928;-80
2021/09/06 11:18:06;;;;;;;;;;;;;;;26.19;nan;99760.66;5050823;28;19924;-79
2021/09/06 11:20:35;;;;;;;;;;;;;;;26.06;nan;99761.13;5053193;28;19932;-82
2021/09/06 11:23:03;;;;;;;;;;;;;;;25.62;nan;99757.97;5044368;28;19925;-82
2021/09/06 11:29:17;;;;;;;;;;;;;;;26.42;nan;99763.13;5068652;28;19978;-82
2021/09/06 11:31:48;;;;;;;;;;;;;;;26.46;nan;99766.50;5052524;28;19929;-82
2021/09/06 11:34:21;;;;;;;;;;;;;;;26.24;nan;99771.38;5053146;28;19925;-82
2021/09/06 11:36:48;;;;;;;;;;;;;;;26.15;nan;99763.00;5046962;28;20406;-82
2021/09/06 11:39:16;;;;;;;;;;;;;;;26.59;nan;99756.66;5036264;28;20421;-82
2021/09/06 11:41:44;;;;;;;;;;;;;;;26.84;nan;99758.56;5053459;28;19925;-82
2021/09/06 11:44:11;;;;;;;;;;;;;;;26.55;nan;99762.66;5036375;28;19925;-82
2021/09/06 11:46:39;;;;;;;;;;;;;;;26.36;nan;99756.59;5053725;28;19932;-82
2021/09/06 11:49:06;;;;;;;;;;;;;;;26.02;nan;99766.31;5036272;28;19935;-82
2021/09/06 11:51:33;;;;;;;;;;;;;;;26.00;nan;99768.91;5036036;28;19925;-82
2021/09/06 11:54:02;;;;;;;;;;;;;;;26.45;nan;99759.22;5052538;28;19932;-82
2021/09/06 11:56:29;;;;;;;;;;;;;;;26.28;nan;99761.22;5053776;28;19931;-82
2021/09/06 11:58:59;;;;;;;;;;;;;;;26.43;nan;99764.66;5052557;28;19929;-82
2021/09/06 12:01:27;;;;;;;;;;;;;;;26.30;nan;99763.56;5022265;28;19929;-82
2021/09/06 12:04:05;;;;;;;;;;;;;;;26.52;nan;99762.88;5053952;28;19925;-82
2021/09/06 12:06:33;;;;;;;;;;;;;;;26.04;nan;99774.38;5035939;28;20273;-82
2021/09/06 12:09:01;;;;;;;;;;;;;;;25.55;nan;99778.44;5052201;28;19947;-82
2021/09/06 12:11:49;;;;;;;;;;;;;;;25.59;nan;99767.56;5025232;28;20387;-82
2021/09/06 12:14:17;;;;;;;;;;;;;;;25.45;nan;99765.63;5051697;28;19931;-78
2021/09/06 12:16:56;;;;;;;;;;;;;;;24.97;nan;99778.19;5065960;28;19925;-78
2021/09/06 12:19:23;;;;;;;;;;;;;;;25.39;nan;99761.94;5039312;28;19932;-78
2021/09/06 12:21:50;;;;;;;;;;;;;;;25.44;nan;99766.94;5040536;28;19925;-78
2021/09/06 12:24:21;;;;;;;;;;;;;;;25.53;nan;99758.16;5046115;28;19929;-79
2021/09/06 12:26:49;;;;;;;;;;;;;;;25.52;nan;99767.25;5047789;28;19929;-78
2021/09/06 12:29:30;;;;;;;;;;;;;;;25.70;nan;99756.22;5083115;28;20425;-78
2021/09/06 12:31:57;;;;;;;;;;;;;;;25.88;nan;99761.53;5051882;28;19943;-78
2021/09/06 12:34:25;;;;;;;;;;;;;;;26.07;nan;99761.91;5032803;28;19925;-79
2021/09/06 12:36:55;;;;;;;;;;;;;;;25.47;nan;99760.22;5050612;28;19925;-79
2021/09/06 12:39:22;;;;;;;;;;;;;;;25.76;nan;99779.94;5051686;28;19970;-79
2021/09/06 12:41:49;;;;;;;;;;;;;;;25.93;nan;99772.22;5029154;28;19978;-78
2021/09/06 12:44:17;;;;;;;;;;;;;;;25.87;nan;99767.75;5039639;28;19933;-79
2021/09/06 12:46:44;;;;;;;;;;;;;;;25.83;nan;99782.31;5025790;28;19933;-79
2021/09/06 12:49:11;;;;;;;;;;;;;;;26.07;nan;99777.00;5051707;28;19978;-79
2021/09/06 12:51:38;;;;;;;;;;;;;;;25.91;nan;99782.63;5043466;28;19932;-79
2021/09/06 12:54:06;;;;;;;;;;;;;;;25.71;nan;99769.22;5045601;28;19928;-79
2021/09/06 12:56:34;;;;;;;;;;;;;;;25.50;nan;99773.50;5045774;28;19929;-81
2021/09/06 12:59:02;;;;;;;;;;;;;;;26.04;nan;99775.19;5031847;28;19943;-82
2021/09/06 13:01:30;;;;;;;;;;;;;;;25.48;nan;99761.75;5027171;28;19933;-78
2021/09/06 13:03:57;;;;;;;;;;;;;;;25.56;nan;99774.31;5044103;28;20002;-77
2021/09/06 13:06:25;;;;;;;;;;;;;;;26.01;nan;99778.28;5042700;28;19939;-78
2021/09/06 13:08:52;;;;;;;;;;;;;;;25.45;nan;99765.63;5046592;28;19931;-77
2021/09/06 13:11:19;;;;;;;;;;;;;;;25.29;nan;99780.56;5042337;28;19929;-78
2021/09/06 13:13:47;;;;;;;;;;;;;;;25.05;nan;99765.00;5042958;28;19950;-78
2021/09/06 13:16:14;;;;;;;;;;;;;;;25.49;nan;99771.13;5050199;28;19928;-80
2021/09/06 13:18:43;;;;;;;;;;;;;;;25.84;nan;99768.78;5045663;28;19933;-77
2021/09/06 13:21:11;;;;;;;;;;;;;;;26.18;nan;99762.75;5031848;28;19925;-79
2021/09/06 13:23:40;;;;;;;;;;;;;;;26.28;nan;99766.16;5035773;28;19970;-78
2021/09/06 13:26:13;;;;;;;;;;;;;;;25.90;nan;99764.66;5050321;28;19925;-77
2021/09/06 13:28:41;;;;;;;;;;;;;;;25.95;nan;99766.75;5042135;28;19978;-79
2021/09/06 13:31:08;;;;;;;;;;;;;;;25.92;nan;99764.94;5054574;28;19931;-78